Time;durP1;ratioP1;P1;durP2;ratioP2;P2;SDS_P1;SDS_P2;PMS_P1;PMS_P2;Temp;Humidity;BMP_temperature;BMP_pressure;BME280_temperature;BME280_humidity;BME280_pressure;Samples;Min_cycle;Max_cycle;Signal;HPM_P1;HPM_P2
2021/01/04 00:00:11;;;;;;;28.60;26.00;;;2.10;99.90;;;;;;5128169;27;20466;-76
2021/01/04 00:02:56;;;;;;;28.73;26.37;;;2.00;99.90;;;;;;5120854;27;20458;-77
2021/01/04 00:05:34;;;;;;;31.37;28.50;;;2.00;99.90;;;;;;5120330;27;20969;-75
2021/01/04 00:08:40;;;;;;;31.47;28.53;;;2.00;99.90;;;;;;5120852;27;20460;-76
2021/01/04 00:11:36;;;;;;;30.40;27.50;;;2.00;99.90;;;;;;5122325;27;20526;-77
2021/01/04 00:14:23;;;;;;;29.73;27.17;;;2.10;99.90;;;;;;5122488;27;20497;-78
2021/01/04 00:17:01;;;;;;;29.53;26.87;;;2.10;99.90;;;;;;5122085;27;20471;-77
2021/01/04 00:19:38;;;;;;;29.30;26.43;;;2.10;99.90;;;;;;5116924;27;20471;-76
2021/01/04 00:22:10;;;;;;;30.63;27.83;;;2.10;99.90;;;;;;5120244;27;20453;-75
2021/01/04 00:24:46;;;;;;;29.60;26.80;;;2.20;99.90;;;;;;5125098;27;20460;-76
2021/01/04 00:27:23;;;;;;;29.00;26.10;;;2.10;99.90;;;;;;5123935;27;20464;-78
2021/01/04 00:29:57;;;;;;;29.80;27.00;;;2.20;99.90;;;;;;5120091;27;20972;-76
2021/01/04 00:32:35;;;;;;;29.80;27.13;;;2.10;99.90;;;;;;5121089;27;20479;-77
2021/01/04 00:35:12;;;;;;;29.33;26.73;;;2.10;99.90;;;;;;5119130;27;20464;-79
2021/01/04 00:38:20;;;;;;;29.30;26.70;;;2.10;99.90;;;;;;5121650;27;20461;-76
2021/01/04 00:41:08;;;;;;;29.27;26.60;;;2.20;99.90;;;;;;5119004;27;20560;-78
2021/01/04 00:43:41;;;;;;;29.47;26.47;;;2.10;99.90;;;;;;5117604;28;20877;-78
2021/01/04 00:46:07;;;;;;;29.03;26.43;;;2.10;99.90;;;;;;5124923;27;20453;-77
2021/01/04 00:48:37;;;;;;;28.30;25.90;;;2.10;99.90;;;;;;5122501;28;20463;-74
2021/01/04 00:51:18;;;;;;;31.23;28.20;;;2.10;99.90;;;;;;5125112;27;20463;-79
2021/01/04 00:53:48;;;;;;;28.63;26.03;;;2.10;99.90;;;;;;5125224;27;20483;-74
2021/01/04 00:56:48;;;;;;;29.00;26.40;;;2.10;99.90;;;;;;5124834;27;20464;-78
2021/01/04 00:59:32;;;;;;;27.30;24.83;;;2.00;99.90;;;;;;5123798;27;20468;-74
2021/01/04 01:02:11;;;;;;;29.37;26.63;;;2.00;99.90;;;;;;5127443;27;20545;-76
2021/01/04 01:04:44;;;;;;;29.80;27.03;;;1.90;99.90;;;;;;5121927;27;20466;-78
2021/01/04 01:07:12;;;;;;;28.90;26.30;;;1.90;99.90;;;;;;5125681;27;20451;-76
2021/01/04 01:09:43;;;;;;;28.77;26.00;;;1.90;99.90;;;;;;5125445;27;20469;-75
2021/01/04 01:12:37;;;;;;;27.33;24.70;;;2.00;99.90;;;;;;5127619;27;20515;-78
2021/01/04 01:15:21;;;;;;;29.37;26.50;;;1.90;99.90;;;;;;5122783;27;20826;-74
2021/01/04 01:18:09;;;;;;;28.43;25.73;;;1.90;99.90;;;;;;5121972;27;20876;-76
2021/01/04 01:20:40;;;;;;;30.33;27.43;;;1.90;99.90;;;;;;5121438;27;20449;-76
2021/01/04 01:23:08;;;;;;;29.80;26.83;;;1.90;99.90;;;;;;5123858;27;20471;-78
2021/01/04 01:25:42;;;;;;;30.27;27.40;;;2.00;99.90;;;;;;5124803;27;20815;-78
2021/01/04 01:28:45;;;;;;;31.60;28.43;;;2.00;99.90;;;;;;5128532;27;20504;-78
2021/01/04 01:31:31;;;;;;;30.00;27.23;;;1.90;99.90;;;;;;5127156;27;20483;-77
2021/01/04 01:34:18;;;;;;;29.70;26.60;;;1.90;99.90;;;;;;5127520;27;20553;-74
2021/01/04 01:37:26;;;;;;;32.17;28.90;;;1.90;99.90;;;;;;5126806;27;20463;-77
2021/01/04 01:40:24;;;;;;;31.60;28.43;;;2.00;99.90;;;;;;5063803;27;20806;-75
2021/01/04 01:43:19;;;;;;;30.73;27.80;;;2.00;99.90;;;;;;5127520;27;20466;-75
2021/01/04 01:45:52;;;;;;;30.80;27.90;;;2.00;99.90;;;;;;5118439;27;20834;-74
2021/01/04 01:48:32;;;;;;;31.33;28.33;;;2.00;99.90;;;;;;5123075;27;20466;-76
2021/01/04 01:51:04;;;;;;;30.37;27.47;;;2.00;99.90;;;;;;5127735;27;20502;-77
2021/01/04 01:53:39;;;;;;;27.67;25.17;;;1.90;99.90;;;;;;5122857;27;20487;-74
2021/01/04 01:56:17;;;;;;;29.73;27.03;;;2.00;99.90;;;;;;5120196;27;20453;-77
2021/01/04 01:59:07;;;;;;;30.00;27.30;;;2.00;99.90;;;;;;5123739;27;20464;-75
2021/01/04 02:01:43;;;;;;;30.03;27.33;;;2.00;99.90;;;;;;5127807;27;20460;-75
2021/01/04 02:04:20;;;;;;;28.63;26.03;;;2.10;99.90;;;;;;5126370;27;20448;-77
2021/01/04 02:07:10;;;;;;;31.00;28.00;;;2.00;99.90;;;;;;5123399;27;20541;-75
2021/01/04 02:09:46;;;;;;;28.73;26.10;;;1.90;99.90;;;;;;5117188;27;20513;-74
2021/01/04 02:12:20;;;;;;;30.47;27.63;;;1.80;99.90;;;;;;5128962;27;20456;-76
2021/01/04 02:15:00;;;;;;;30.10;27.50;;;1.90;99.90;;;;;;5126235;27;20462;-76
2021/01/04 02:18:03;;;;;;;29.57;26.70;;;1.90;99.90;;;;;;5125090;27;20460;-74
2021/01/04 02:21:34;;;;;;;31.03;28.07;;;1.80;99.90;;;;;;5123592;27;20467;-73
2021/01/04 02:24:06;;;;;;;27.17;24.77;;;1.80;99.90;;;;;;5123591;27;20979;-76
2021/01/04 02:26:33;;;;;;;30.97;28.07;;;1.80;99.90;;;;;;5121215;27;20464;-74
2021/01/04 02:29:05;;;;;;;33.50;30.23;;;1.80;99.90;;;;;;5124393;27;20464;-76
2021/01/04 02:31:34;;;;;;;29.70;27.00;;;1.80;99.90;;;;;;5119682;27;20461;-76
2021/01/04 02:34:01;;;;;;;31.63;28.73;;;1.80;99.90;;;;;;5122285;27;20887;-74
2021/01/04 02:36:32;;;;;;;32.00;29.00;;;1.90;99.90;;;;;;5125679;27;20464;-75
2021/01/04 02:39:08;;;;;;;31.23;28.27;;;1.80;99.90;;;;;;5126722;27;20496;-77
2021/01/04 02:41:43;;;;;;;32.00;28.90;;;1.80;99.90;;;;;;5127976;27;20486;-77
2021/01/04 02:44:09;;;;;;;31.17;28.17;;;1.80;99.90;;;;;;5127503;27;20462;-73
2021/01/04 02:46:38;;;;;;;32.53;29.37;;;1.80;99.90;;;;;;5128925;27;20467;-74
2021/01/04 02:49:15;;;;;;;30.67;27.70;;;1.80;99.90;;;;;;5122652;27;20818;-77
2021/01/04 02:51:47;;;;;;;28.83;26.33;;;1.80;99.90;;;;;;5125848;27;20845;-76
2021/01/04 02:54:22;;;;;;;28.60;25.93;;;1.80;99.90;;;;;;5122401;27;20495;-74
2021/01/04 02:56:58;;;;;;;26.40;24.23;;;1.70;99.90;;;;;;5115226;27;20464;-74
2021/01/04 02:59:48;;;;;;;26.80;24.50;;;1.70;99.90;;;;;;5123189;27;20464;-77
2021/01/04 03:02:20;;;;;;;30.50;27.60;;;1.70;99.90;;;;;;5132429;27;20455;-77
2021/01/04 03:04:47;;;;;;;29.63;26.93;;;1.70;99.90;;;;;;5126888;27;20527;-76
2021/01/04 03:07:17;;;;;;;30.47;27.67;;;1.60;99.90;;;;;;5118398;27;20473;-75
2021/01/04 03:09:46;;;;;;;28.67;26.27;;;1.70;99.90;;;;;;5121935;27;20456;-77
2021/01/04 03:12:16;;;;;;;31.00;28.27;;;1.70;99.90;;;;;;5124954;27;20456;-76
2021/01/04 03:15:05;;;;;;;31.60;28.50;;;1.70;99.90;;;;;;5120485;27;20464;-74
2021/01/04 03:17:39;;;;;;;29.80;27.10;;;1.70;99.90;;;;;;5125897;27;20496;-77
2021/01/04 03:20:10;;;;;;;29.70;26.87;;;1.70;99.90;;;;;;5122208;27;21004;-74
2021/01/04 03:22:38;;;;;;;31.07;28.00;;;1.70;99.90;;;;;;5117081;27;20449;-74
2021/01/04 03:25:15;;;;;;;29.67;26.97;;;1.70;99.90;;;;;;5119711;27;20463;-77
2021/01/04 03:27:42;;;;;;;30.17;27.37;;;1.70;99.90;;;;;;5119060;27;20821;-76
2021/01/04 03:30:11;;;;;;;29.27;26.73;;;1.60;99.90;;;;;;5120997;27;20455;-74
2021/01/04 03:32:37;;;;;;;30.93;28.07;;;1.70;99.90;;;;;;5126684;27;21465;-75
2021/01/04 03:35:04;;;;;;;28.70;26.00;;;1.70;99.90;;;;;;5124104;27;20497;-74
2021/01/04 03:37:31;;;;;;;30.13;26.93;;;1.70;99.90;;;;;;5119125;27;20904;-75
2021/01/04 03:39:57;;;;;;;29.47;26.73;;;1.70;99.90;;;;;;5120277;27;20803;-77
2021/01/04 03:42:24;;;;;;;30.53;27.73;;;1.70;99.90;;;;;;5120254;27;20969;-76
2021/01/04 03:44:50;;;;;;;31.13;27.80;;;1.70;99.90;;;;;;5124816;27;20967;-75
2021/01/04 03:47:17;;;;;;;28.90;26.43;;;1.70;99.90;;;;;;5127861;27;20453;-75
2021/01/04 03:49:43;;;;;;;28.50;26.03;;;1.70;99.90;;;;;;5123254;27;20521;-75
2021/01/04 03:52:09;;;;;;;29.37;26.67;;;1.70;99.90;;;;;;5121163;27;20881;-73
2021/01/04 03:54:36;;;;;;;29.20;26.53;;;1.70;99.90;;;;;;5124929;27;21025;-74
2021/01/04 03:57:03;;;;;;;27.10;24.80;;;1.70;99.90;;;;;;5119636;27;20463;-75
2021/01/04 03:59:30;;;;;;;29.77;26.77;;;1.60;99.90;;;;;;5121084;27;20467;-76
2021/01/04 04:01:57;;;;;;;29.73;26.83;;;1.70;99.90;;;;;;5123344;27;20457;-76
2021/01/04 04:04:24;;;;;;;28.70;26.20;;;1.70;99.90;;;;;;5121099;27;20547;-74
2021/01/04 04:06:52;;;;;;;31.07;28.13;;;1.70;99.90;;;;;;5130424;27;20467;-77
2021/01/04 04:09:20;;;;;;;31.00;28.17;;;1.60;99.90;;;;;;5114720;27;20463;-75
2021/01/04 04:11:47;;;;;;;30.03;27.07;;;1.60;99.90;;;;;;5123318;27;20456;-76
2021/01/04 04:14:15;;;;;;;29.50;26.60;;;1.70;99.90;;;;;;5120987;27;20838;-77
2021/01/04 04:16:48;;;;;;;27.03;24.63;;;1.70;99.90;;;;;;5124184;27;20466;-77
2021/01/04 04:19:15;;;;;;;29.10;26.37;;;1.70;99.90;;;;;;5123381;27;20468;-75
2021/01/04 04:21:41;;;;;;;30.13;26.93;;;1.70;99.90;;;;;;5123687;27;20464;-77
2021/01/04 04:24:08;;;;;;;30.40;26.67;;;1.60;99.90;;;;;;5118771;27;20663;-78
2021/01/04 04:26:34;;;;;;;29.27;26.70;;;1.70;99.90;;;;;;5121885;27;20501;-75
2021/01/04 04:29:01;;;;;;;29.53;26.60;;;1.60;99.90;;;;;;5120401;27;20461;-76
2021/01/04 04:31:28;;;;;;;28.27;25.70;;;1.60;99.90;;;;;;5115120;27;20829;-77
2021/01/04 04:33:55;;;;;;;29.30;26.37;;;1.60;99.90;;;;;;5124561;27;20485;-74
2021/01/04 04:36:23;;;;;;;29.97;27.17;;;1.50;99.90;;;;;;5117474;28;20959;-77
2021/01/04 04:38:51;;;;;;;29.27;26.73;;;1.60;99.90;;;;;;5128911;27;20451;-76
2021/01/04 04:41:26;;;;;;;26.80;24.20;;;1.50;99.90;;;;;;5124356;27;20487;-73
2021/01/04 04:44:00;;;;;;;26.80;24.40;;;1.50;99.90;;;;;;5120885;27;20454;-76
2021/01/04 04:46:40;;;;;;;28.93;26.27;;;1.50;99.90;;;;;;5107786;28;20483;-75
2021/01/04 04:49:17;;;;;;;28.00;25.40;;;1.50;99.90;;;;;;5116045;28;20866;-77
2021/01/04 04:52:07;;;;;;;26.67;24.40;;;1.50;99.90;;;;;;5120151;28;20990;-74
2021/01/04 04:54:59;;;;;;;29.53;26.63;;;1.50;99.90;;;;;;5119752;28;20501;-76
2021/01/04 04:57:57;;;;;;;29.20;26.30;;;1.50;99.90;;;;;;5116067;28;20471;-74
2021/01/04 05:00:37;;;;;;;29.53;26.67;;;1.50;99.90;;;;;;5122527;27;20468;-75
2021/01/04 05:03:15;;;;;;;27.17;24.73;;;1.50;99.90;;;;;;5115294;28;20459;-75
2021/01/04 05:05:57;;;;;;;28.93;26.33;;;1.50;99.90;;;;;;5124988;28;20501;-75
2021/01/04 05:08:54;;;;;;;28.63;25.93;;;1.50;99.90;;;;;;5123520;28;20684;-76
2021/01/04 05:11:28;;;;;;;26.63;24.30;;;1.50;99.90;;;;;;5120526;28;20464;-77
2021/01/04 05:13:56;;;;;;;27.53;25.00;;;1.50;99.90;;;;;;5114354;28;20489;-77
2021/01/04 05:16:32;;;;;;;27.50;25.10;;;1.50;99.90;;;;;;5118534;27;20509;-75
2021/01/04 05:19:32;;;;;;;29.63;26.90;;;1.50;99.90;;;;;;5113186;28;20467;-74
2021/01/04 05:22:37;;;;;;;29.73;26.87;;;1.50;99.90;;;;;;5112296;28;21187;-74
2021/01/04 05:25:16;;;;;;;29.57;26.67;;;1.50;99.90;;;;;;5115663;28;20451;-76
2021/01/04 05:28:06;;;;;;;30.27;27.27;;;1.50;99.90;;;;;;5120662;28;20792;-74
2021/01/04 05:30:58;;;;;;;29.53;26.37;;;1.50;99.90;;;;;;5122413;27;20463;-75
2021/01/04 05:33:42;;;;;;;28.03;25.30;;;1.60;99.90;;;;;;5119981;28;20499;-78
2021/01/04 05:36:22;;;;;;;26.97;24.67;;;1.60;99.90;;;;;;5125704;28;20460;-76
2021/01/04 05:39:04;;;;;;;28.60;26.03;;;1.60;99.90;;;;;;5120876;27;20541;-75
2021/01/04 05:41:45;;;;;;;30.93;27.83;;;1.60;99.90;;;;;;5123164;27;20494;-76
2021/01/04 05:44:29;;;;;;;29.07;26.27;;;1.50;99.90;;;;;;5119349;27;20463;-78
2021/01/04 05:47:03;;;;;;;30.83;27.93;;;1.60;99.90;;;;;;5121501;27;20460;-75
2021/01/04 05:49:32;;;;;;;29.93;26.83;;;1.60;99.90;;;;;;5120846;27;20463;-76
2021/01/04 05:51:59;;;;;;;30.33;27.23;;;1.60;99.90;;;;;;5127643;27;20537;-78
2021/01/04 05:54:30;;;;;;;29.70;26.90;;;1.60;99.90;;;;;;5126512;27;21044;-78
2021/01/04 05:57:11;;;;;;;31.00;28.20;;;1.60;99.90;;;;;;5126564;27;20520;-76
2021/01/04 05:59:46;;;;;;;27.77;25.13;;;1.70;99.90;;;;;;5120921;27;20502;-78
2021/01/04 06:02:22;;;;;;;30.83;27.63;;;1.60;99.90;;;;;;5118681;27;20467;-75
2021/01/04 06:04:50;;;;;;;28.03;25.53;;;1.60;99.90;;;;;;5117884;27;20466;-78
2021/01/04 06:07:18;;;;;;;28.17;25.60;;;1.60;99.90;;;;;;5116951;27;20483;-78
2021/01/04 06:09:56;;;;;;;26.50;24.17;;;1.60;99.90;;;;;;5123992;27;20494;-77
2021/01/04 06:12:34;;;;;;;30.07;27.10;;;1.60;99.90;;;;;;5121971;27;20509;-77
2021/01/04 06:15:01;;;;;;;29.77;27.00;;;1.60;99.90;;;;;;5122041;27;21111;-78
2021/01/04 06:17:34;;;;;;;29.60;26.80;;;1.60;99.90;;;;;;5126146;27;20958;-76
2021/01/04 06:20:12;;;;;;;30.70;27.70;;;1.70;99.90;;;;;;5123168;27;20456;-78
2021/01/04 06:22:41;;;;;;;28.83;26.20;;;1.70;99.90;;;;;;5114813;27;20798;-76
2021/01/04 06:25:10;;;;;;;29.67;26.83;;;1.80;99.90;;;;;;5120425;27;20913;-76
2021/01/04 06:27:38;;;;;;;29.90;27.03;;;1.70;99.90;;;;;;5124438;27;20455;-76
2021/01/04 06:30:29;;;;;;;29.70;26.90;;;1.70;99.90;;;;;;5121495;27;20451;-76
2021/01/04 06:33:04;;;;;;;31.40;28.50;;;1.70;99.90;;;;;;5124863;27;20462;-79
2021/01/04 06:35:33;;;;;;;29.37;26.77;;;1.70;99.90;;;;;;5122004;27;20459;-77
2021/01/04 06:38:07;;;;;;;29.37;26.63;;;1.70;99.90;;;;;;5123035;27;20467;-77
2021/01/04 06:40:37;;;;;;;30.70;27.77;;;1.70;99.90;;;;;;5121642;27;20515;-75
2021/01/04 06:43:16;;;;;;;30.43;27.33;;;1.70;99.90;;;;;;5122701;27;20506;-77
2021/01/04 06:46:00;;;;;;;31.20;27.93;;;1.60;99.90;;;;;;5123321;27;20448;-76
2021/01/04 06:48:33;;;;;;;30.87;28.10;;;1.70;99.90;;;;;;5125972;27;21026;-76
2021/01/04 06:51:17;;;;;;;30.07;27.17;;;1.70;99.90;;;;;;5124319;27;20464;-74
2021/01/04 06:54:08;;;;;;;32.30;29.00;;;1.70;99.90;;;;;;5121264;27;20484;-78
2021/01/04 06:57:04;;;;;;;29.43;26.60;;;1.70;99.90;;;;;;5120310;27;20461;-75
2021/01/04 06:59:59;;;;;;;29.40;26.50;;;1.60;99.90;;;;;;5114346;27;20468;-79
2021/01/04 07:02:50;;;;;;;30.43;27.50;;;1.60;99.90;;;;;;5122827;27;20464;-76
2021/01/04 07:05:54;;;;;;;30.37;27.33;;;1.60;99.90;;;;;;5119600;27;20460;-76
2021/01/04 07:09:02;;;;;;;30.53;27.73;;;1.60;99.90;;;;;;5108115;27;20476;-78
2021/01/04 07:11:39;;;;;;;31.13;27.87;;;1.70;99.90;;;;;;5017520;28;20491;-78
2021/01/04 07:14:35;;;;;;;31.23;28.20;;;1.70;99.90;;;;;;5019421;28;20497;-75
2021/01/04 07:17:33;;;;;;;29.07;26.27;;;1.70;99.90;;;;;;5058967;27;20448;-79
2021/01/04 07:20:29;;;;;;;31.87;28.70;;;1.70;99.90;;;;;;5113345;27;20465;-75
2021/01/04 07:23:15;;;;;;;30.33;27.47;;;1.60;99.90;;;;;;5114893;27;20453;-78
2021/01/04 07:25:52;;;;;;;32.87;28.33;;;1.60;99.90;;;;;;5123371;27;20457;-76
2021/01/04 07:28:34;;;;;;;29.33;26.30;;;1.70;99.90;;;;;;5127020;27;20472;-76
2021/01/04 07:31:05;;;;;;;31.93;28.90;;;1.60;99.90;;;;;;5122201;27;20517;-75
2021/01/04 07:33:37;;;;;;;31.37;28.07;;;1.70;99.90;;;;;;5120301;27;20499;-75
2021/01/04 07:36:12;;;;;;;31.67;28.33;;;1.80;99.90;;;;;;5123487;27;20464;-77
2021/01/04 07:39:06;;;;;;;28.67;25.90;;;1.80;99.90;;;;;;5120724;27;20490;-78
2021/01/04 07:41:41;;;;;;;33.63;30.13;;;1.80;99.90;;;;;;5116225;27;20566;-77
2021/01/04 07:44:56;;;;;;;29.67;26.70;;;1.70;99.90;;;;;;5116483;27;20981;-77
2021/01/04 07:48:02;;;;;;;29.07;26.07;;;1.80;99.90;;;;;;5081014;27;20743;-78
2021/01/04 07:51:07;;;;;;;28.57;25.83;;;1.70;99.90;;;;;;5118376;27;20468;-77
2021/01/04 07:54:04;;;;;;;31.30;28.17;;;1.70;99.90;;;;;;5083139;27;20490;-77
2021/01/04 07:57:13;;;;;;;30.87;27.77;;;1.70;99.90;;;;;;5120814;27;20456;-78
2021/01/04 08:00:14;;;;;;;29.57;26.87;;;1.80;99.90;;;;;;5126095;27;20553;-75
2021/01/04 08:03:12;;;;;;;30.77;27.57;;;1.70;99.90;;;;;;5120474;27;20457;-75
2021/01/04 08:05:58;;;;;;;29.67;26.77;;;1.80;99.90;;;;;;5116183;27;20453;-75
2021/01/04 08:08:36;;;;;;;32.23;28.73;;;1.90;99.90;;;;;;5121443;27;20977;-75
2021/01/04 08:11:54;;;;;;;28.90;26.20;;;1.80;99.90;;;;;;5123147;27;20482;-78
2021/01/04 08:14:58;;;;;;;29.73;26.70;;;1.90;99.90;;;;;;5115499;27;21290;-75
2021/01/04 08:17:36;;;;;;;30.33;27.37;;;1.90;99.90;;;;;;5127047;27;20446;-76
2021/01/04 08:20:07;;;;;;;30.93;27.93;;;2.00;99.90;;;;;;5119890;27;20457;-79
2021/01/04 08:22:53;;;;;;;32.40;28.53;;;2.00;99.90;;;;;;5123629;27;20464;-78
2021/01/04 08:25:36;;;;;;;30.50;27.47;;;2.00;99.90;;;;;;5122630;27;20548;-76
2021/01/04 08:28:16;;;;;;;31.77;28.37;;;2.00;99.90;;;;;;5119287;27;20468;-77
2021/01/04 08:30:51;;;;;;;29.63;26.70;;;2.00;99.90;;;;;;5116123;27;20457;-77
2021/01/04 08:33:26;;;;;;;30.53;27.63;;;1.90;99.90;;;;;;5120025;27;20503;-79
2021/01/04 08:35:54;;;;;;;28.37;25.43;;;2.00;99.90;;;;;;5121831;27;20456;-75
2021/01/04 08:38:38;;;;;;;28.70;25.83;;;2.00;99.90;;;;;;5122687;27;20511;-77
2021/01/04 08:41:10;;;;;;;29.73;26.77;;;2.00;99.90;;;;;;5120076;27;20549;-76
2021/01/04 08:43:40;;;;;;;30.13;27.17;;;2.00;99.90;;;;;;5112009;27;20461;-79
2021/01/04 08:46:25;;;;;;;30.00;27.23;;;2.10;99.90;;;;;;5119410;27;20466;-78
2021/01/04 08:48:54;;;;;;;29.47;26.57;;;2.10;99.90;;;;;;5116002;27;20576;-75
2021/01/04 08:51:34;;;;;;;28.13;25.33;;;2.00;99.90;;;;;;5119672;28;20468;-78
2021/01/04 08:54:04;;;;;;;29.80;26.80;;;2.00;99.90;;;;;;5123162;28;20491;-77
2021/01/04 08:56:34;;;;;;;28.90;26.10;;;1.90;99.90;;;;;;5120437;28;20548;-75
2021/01/04 08:59:13;;;;;;;29.53;26.53;;;2.00;99.90;;;;;;5118594;28;20463;-78
2021/01/04 09:01:53;;;;;;;27.37;24.87;;;2.00;99.90;;;;;;5118253;27;20456;-78
2021/01/04 09:04:31;;;;;;;28.00;24.20;;;2.00;99.90;;;;;;5115833;28;20456;-78
2021/01/04 09:07:15;;;;;;;27.90;25.10;;;2.00;99.90;;;;;;5114087;28;20468;-77
2021/01/04 09:09:45;;;;;;;29.03;25.60;;;2.00;99.90;;;;;;5118389;28;20477;-74
2021/01/04 09:12:36;;;;;;;27.57;24.67;;;2.10;99.90;;;;;;5117667;27;20464;-76
2021/01/04 09:15:06;;;;;;;27.30;24.40;;;2.00;99.90;;;;;;5124136;27;20492;-78
2021/01/04 09:17:40;;;;;;;29.40;26.37;;;2.00;99.90;;;;;;5119701;27;20954;-77
2021/01/04 09:20:24;;;;;;;28.13;25.27;;;2.00;99.90;;;;;;5121009;27;20452;-75
2021/01/04 09:23:05;;;;;;;27.97;25.00;;;2.00;99.90;;;;;;5121067;27;20472;-76
2021/01/04 09:25:45;;;;;;;27.90;25.10;;;2.00;99.90;;;;;;5121668;27;20460;-78
2021/01/04 09:28:13;;;;;;;25.90;23.40;;;2.00;99.90;;;;;;5124608;27;20457;-78
2021/01/04 09:30:39;;;;;;;26.80;24.13;;;2.00;99.90;;;;;;5124013;27;20470;-75
2021/01/04 09:33:10;;;;;;;26.27;23.90;;;2.00;99.90;;;;;;5124506;27;20459;-78
2021/01/04 09:35:37;;;;;;;25.87;23.17;;;2.10;99.90;;;;;;5117677;27;20784;-76
2021/01/04 09:38:07;;;;;;;28.47;25.47;;;2.10;99.90;;;;;;5120966;27;20463;-76
2021/01/04 09:40:34;;;;;;;24.67;22.37;;;2.20;99.90;;;;;;5123719;27;20476;-78
2021/01/04 09:43:06;;;;;;;25.43;22.90;;;2.10;99.90;;;;;;5123039;27;20451;-78
2021/01/04 09:45:33;;;;;;;29.60;26.40;;;2.10;99.90;;;;;;5125109;27;20460;-75
2021/01/04 09:48:03;;;;;;;28.13;25.20;;;2.20;99.90;;;;;;5125069;27;20509;-75
2021/01/04 09:50:33;;;;;;;27.37;24.63;;;2.20;99.90;;;;;;5123829;27;20456;-77
2021/01/04 09:53:04;;;;;;;25.87;23.37;;;2.20;99.90;;;;;;5120938;27;20535;-78
2021/01/04 09:55:37;;;;;;;28.33;25.23;;;2.30;99.90;;;;;;5118904;27;20819;-77
2021/01/04 09:58:04;;;;;;;27.67;24.70;;;2.20;99.90;;;;;;5124079;27;20459;-75
2021/01/04 10:00:33;;;;;;;27.70;24.77;;;2.20;99.90;;;;;;5127728;27;20840;-78
2021/01/04 10:03:03;;;;;;;31.50;25.03;;;2.10;99.90;;;;;;5119411;27;20547;-74
2021/01/04 10:05:37;;;;;;;27.13;24.37;;;2.10;99.90;;;;;;5118044;27;20993;-78
2021/01/04 10:08:08;;;;;;;31.10;27.40;;;2.20;99.90;;;;;;5124041;27;20785;-78
2021/01/04 10:10:39;;;;;;;30.70;27.27;;;2.10;99.90;;;;;;5120598;27;20461;-75
2021/01/04 10:13:11;;;;;;;29.57;26.30;;;2.10;99.90;;;;;;5123255;27;20464;-79
2021/01/04 10:15:38;;;;;;;30.70;26.97;;;2.20;99.90;;;;;;5122698;27;20824;-78
2021/01/04 10:18:23;;;;;;;32.83;27.10;;;2.20;99.90;;;;;;5116485;27;20469;-75
2021/01/04 10:20:52;;;;;;;30.33;26.73;;;2.20;99.90;;;;;;5125347;27;20456;-76
2021/01/04 10:23:24;;;;;;;30.73;27.10;;;2.20;99.90;;;;;;5119176;27;20491;-77
2021/01/04 10:25:55;;;;;;;33.90;29.23;;;2.20;99.90;;;;;;5120696;27;20464;-76
2021/01/04 10:28:21;;;;;;;31.63;28.20;;;2.20;99.90;;;;;;5120624;27;20464;-77
2021/01/04 10:30:47;;;;;;;33.30;29.70;;;2.30;99.90;;;;;;5121136;27;20469;-77
2021/01/04 10:33:24;;;;;;;31.73;28.50;;;2.30;99.90;;;;;;5124531;27;21070;-79
2021/01/04 10:36:01;;;;;;;28.73;25.63;;;2.40;99.90;;;;;;5128642;27;20452;-79
2021/01/04 10:38:28;;;;;;;29.90;26.90;;;2.40;99.90;;;;;;5120615;27;20459;-78
2021/01/04 10:40:56;;;;;;;34.97;28.13;;;2.30;99.90;;;;;;5121856;27;20476;-77
2021/01/04 10:43:26;;;;;;;30.83;27.53;;;2.20;99.90;;;;;;5121534;27;20471;-75
2021/01/04 10:45:53;;;;;;;30.47;27.27;;;2.30;99.90;;;;;;5121197;27;21044;-76
2021/01/04 10:48:24;;;;;;;29.87;26.87;;;2.40;99.90;;;;;;5124579;27;20464;-74
2021/01/04 10:50:52;;;;;;;34.87;28.60;;;2.50;99.90;;;;;;5123931;27;20464;-75
2021/01/04 10:53:34;;;;;;;31.00;26.90;;;2.50;99.90;;;;;;5125140;27;20452;-78
2021/01/04 10:56:24;;;;;;;29.00;26.10;;;2.40;99.90;;;;;;5121625;27;20452;-78
2021/01/04 10:58:59;;;;;;;29.73;26.87;;;2.40;99.90;;;;;;5121517;27;20463;-78
2021/01/04 11:01:32;;;;;;;31.27;27.97;;;2.60;99.90;;;;;;5126154;27;20467;-78
2021/01/04 11:04:05;;;;;;;30.07;26.97;;;2.60;99.90;;;;;;5122991;27;21026;-78
2021/01/04 11:06:34;;;;;;;32.43;29.17;;;2.50;99.90;;;;;;5121805;27;20463;-78
2021/01/04 11:09:12;;;;;;;32.27;28.97;;;2.60;99.90;;;;;;5120540;27;20454;-75
2021/01/04 11:11:41;;;;;;;31.70;28.57;;;2.60;99.90;;;;;;5123025;27;20520;-77
2021/01/04 11:14:12;;;;;;;33.00;29.07;;;2.60;99.90;;;;;;5120298;27;20500;-77
2021/01/04 11:16:44;;;;;;;31.70;27.50;;;2.50;99.90;;;;;;5124813;27;20456;-76
2021/01/04 11:19:12;;;;;;;33.47;29.93;;;2.40;99.90;;;;;;5117428;27;20468;-75
2021/01/04 11:21:44;;;;;;;31.90;27.30;;;2.40;99.90;;;;;;5121070;27;20510;-77
2021/01/04 11:24:12;;;;;;;31.10;27.90;;;2.50;99.90;;;;;;5126651;27;20969;-74
2021/01/04 11:26:43;;;;;;;32.70;29.27;;;2.50;99.90;;;;;;5119880;27;20847;-79
2021/01/04 11:29:11;;;;;;;33.20;29.67;;;2.50;99.90;;;;;;5116988;27;20475;-76
2021/01/04 11:31:37;;;;;;;31.53;28.27;;;2.60;99.90;;;;;;5121025;27;20457;-77
2021/01/04 11:34:04;;;;;;;31.70;28.60;;;2.60;99.90;;;;;;5121955;27;20479;-77
2021/01/04 11:36:32;;;;;;;31.80;28.40;;;2.70;99.90;;;;;;5115092;27;20460;-77
2021/01/04 11:38:58;;;;;;;30.60;27.40;;;2.60;99.90;;;;;;5124479;27;20841;-79
2021/01/04 11:41:25;;;;;;;32.50;29.03;;;2.60;99.90;;;;;;5119792;27;21004;-75
2021/01/04 11:43:52;;;;;;;32.57;29.37;;;2.60;99.90;;;;;;5123355;27;20969;-76
2021/01/04 11:46:19;;;;;;;31.90;28.60;;;2.70;99.90;;;;;;5117241;27;21015;-78
2021/01/04 11:48:47;;;;;;;30.87;27.50;;;2.80;99.90;;;;;;5124218;27;20463;-75
2021/01/04 11:51:20;;;;;;;32.43;29.03;;;2.80;99.90;;;;;;5122253;27;20964;-76
2021/01/04 11:53:48;;;;;;;30.40;27.33;;;2.80;99.90;;;;;;5119148;27;21032;-77
2021/01/04 11:56:16;;;;;;;29.10;26.23;;;2.70;99.90;;;;;;5119328;27;20459;-75
2021/01/04 11:58:43;;;;;;;29.97;26.77;;;2.70;99.90;;;;;;5122641;27;20536;-78
2021/01/04 12:01:11;;;;;;;29.00;26.10;;;2.60;99.90;;;;;;5123685;27;20594;-75
2021/01/04 12:03:37;;;;;;;29.77;26.70;;;2.70;99.90;;;;;;5120205;27;20472;-76
2021/01/04 12:06:05;;;;;;;28.73;25.63;;;2.50;99.90;;;;;;5122141;27;20456;-79
2021/01/04 12:08:32;;;;;;;27.23;24.53;;;2.50;99.90;;;;;;5118634;27;20469;-76
2021/01/04 12:11:00;;;;;;;30.07;25.93;;;2.50;99.90;;;;;;5117428;27;20456;-76
2021/01/04 12:13:27;;;;;;;26.60;24.10;;;2.40;99.90;;;;;;5117453;27;20492;-79
2021/01/04 12:15:53;;;;;;;25.70;23.20;;;2.40;99.90;;;;;;5125404;27;20499;-73
2021/01/04 12:18:21;;;;;;;27.60;24.80;;;2.50;99.90;;;;;;5120215;27;20965;-74
2021/01/04 12:20:49;;;;;;;27.83;25.10;;;2.30;99.90;;;;;;5119231;27;20464;-78
2021/01/04 12:23:15;;;;;;;27.33;24.90;;;2.40;99.90;;;;;;5117826;27;20511;-78
2021/01/04 12:25:43;;;;;;;28.33;25.77;;;2.40;99.90;;;;;;5120852;27;20509;-77
2021/01/04 12:28:09;;;;;;;27.03;24.63;;;2.50;99.90;;;;;;5118762;27;21024;-79
2021/01/04 12:30:36;;;;;;;26.97;24.57;;;2.40;99.90;;;;;;5123978;27;20464;-75
2021/01/04 12:33:02;;;;;;;27.30;24.80;;;2.60;99.90;;;;;;5114433;27;20485;-74
2021/01/04 12:35:29;;;;;;;28.10;25.33;;;2.50;99.90;;;;;;5115232;27;20562;-78
2021/01/04 12:37:56;;;;;;;26.13;23.77;;;2.60;99.90;;;;;;5115304;27;20514;-78
2021/01/04 12:40:26;;;;;;;25.07;22.80;;;2.70;99.90;;;;;;5117628;27;20499;-79
2021/01/04 12:42:53;;;;;;;32.77;29.10;;;2.60;99.90;;;;;;5119125;27;20811;-78
2021/01/04 12:45:21;;;;;;;27.90;25.30;;;2.60;99.90;;;;;;5119466;27;20463;-77
2021/01/04 12:47:48;;;;;;;28.60;25.90;;;2.60;99.90;;;;;;5119613;27;20453;-76
2021/01/04 12:50:15;;;;;;;29.10;26.43;;;2.60;99.90;;;;;;5118246;27;20461;-78
2021/01/04 12:52:42;;;;;;;28.47;25.83;;;2.60;99.90;;;;;;5113589;28;20471;-78
2021/01/04 12:55:09;;;;;;;28.23;25.60;;;2.60;99.90;;;;;;5123974;28;20491;-80
2021/01/04 12:57:37;;;;;;;26.97;24.60;;;2.50;99.90;;;;;;5121391;28;20459;-79
2021/01/04 13:00:06;;;;;;;29.57;26.67;;;2.50;99.90;;;;;;5120587;27;20560;-80
2021/01/04 13:02:32;;;;;;;27.83;25.10;;;2.50;99.90;;;;;;5125164;27;20456;-78
2021/01/04 13:04:58;;;;;;;28.27;25.50;;;2.60;99.90;;;;;;5117514;28;21092;-78
2021/01/04 13:07:25;;;;;;;29.00;26.30;;;2.60;99.90;;;;;;5120340;28;20448;-80
2021/01/04 13:09:53;;;;;;;27.47;25.03;;;2.60;99.90;;;;;;5115557;28;20464;-79
2021/01/04 13:12:20;;;;;;;28.93;26.20;;;2.70;99.90;;;;;;5115364;28;20471;-77
2021/01/04 13:14:47;;;;;;;26.20;23.90;;;2.70;99.90;;;;;;5123712;27;20484;-79
2021/01/04 13:17:13;;;;;;;25.63;23.43;;;2.60;99.90;;;;;;5126219;27;20458;-79
2021/01/04 13:19:41;;;;;;;27.20;24.80;;;2.70;99.90;;;;;;5124267;28;20848;-76